createdAt,value
2018-12-17T00:00:09.663Z,994.86
2018-12-17T00:01:09.660Z,994.91
2018-12-17T00:02:09.642Z,994.89
2018-12-17T00:03:09.634Z,994.80
2018-12-17T00:04:09.652Z,994.82
2018-12-17T00:05:09.645Z,994.80
2018-12-17T00:06:09.607Z,994.86
2018-12-17T00:07:09.587Z,994.86
2018-12-17T00:08:09.583Z,994.84
2018-12-17T00:09:09.609Z,994.82
2018-12-17T00:10:09.584Z,994.81
2018-12-17T00:11:09.563Z,994.81
2018-12-17T00:12:16.362Z,994.79
2018-12-17T00:13:10.522Z,994.80
2018-12-17T00:14:09.513Z,994.77
2018-12-17T00:15:09.504Z,994.78
2018-12-17T00:16:09.595Z,994.80
2018-12-17T00:17:09.532Z,994.77
2018-12-17T00:18:09.470Z,994.73
2018-12-17T00:19:09.461Z,994.75
2018-12-17T00:20:09.447Z,994.71
2018-12-17T00:21:09.440Z,994.69
2018-12-17T00:22:09.455Z,994.71
2018-12-17T00:23:09.461Z,994.72
2018-12-17T00:24:09.408Z,994.71
2018-12-17T00:25:09.401Z,994.69
2018-12-17T00:26:09.384Z,994.74
2018-12-17T00:27:09.373Z,994.71
2018-12-17T00:28:09.392Z,994.69
2018-12-17T00:29:09.372Z,994.68
2018-12-17T00:30:09.340Z,994.70
2018-12-17T00:31:09.330Z,994.70
2018-12-17T00:32:09.324Z,994.68
2018-12-17T00:33:09.313Z,994.73
2018-12-17T00:34:09.325Z,994.68
2018-12-17T00:35:09.313Z,994.67
2018-12-17T00:36:09.283Z,994.67
2018-12-17T00:37:09.263Z,994.66
2018-12-17T00:38:09.256Z,994.68
2018-12-17T00:39:09.244Z,994.67
2018-12-17T00:40:09.263Z,994.67
2018-12-17T00:41:09.243Z,994.69
2018-12-17T00:42:09.208Z,994.72
2018-12-17T00:43:09.201Z,994.74
2018-12-17T00:44:09.196Z,994.75
2018-12-17T00:45:09.179Z,994.75
2018-12-17T00:46:09.197Z,994.74
2018-12-17T00:47:09.162Z,994.76
2018-12-17T00:48:09.146Z,994.72
2018-12-17T00:49:09.140Z,994.76
2018-12-17T00:50:09.131Z,994.76
2018-12-17T00:51:09.113Z,994.76
2018-12-17T00:52:09.155Z,994.78
2018-12-17T00:53:09.099Z,994.82
2018-12-17T00:54:09.081Z,994.79
2018-12-17T00:55:09.076Z,994.76
2018-12-17T00:56:09.064Z,994.85
2018-12-17T00:57:09.049Z,994.76
2018-12-17T00:58:14.980Z,994.73
2018-12-17T00:59:10.026Z,994.75
2018-12-17T01:00:09.016Z,994.77
2018-12-17T01:01:09.005Z,994.77
2018-12-17T01:02:08.995Z,994.77
2018-12-17T01:03:08.987Z,994.73
2018-12-17T01:04:09.014Z,994.72
2018-12-17T01:05:08.974Z,994.74
2018-12-17T01:06:08.958Z,994.70
2018-12-17T01:07:08.951Z,994.79
2018-12-17T01:08:08.944Z,994.77
2018-12-17T01:09:08.922Z,994.77
2018-12-17T01:10:08.965Z,994.79
2018-12-17T01:11:08.899Z,994.77
2018-12-17T01:12:08.889Z,994.75
2018-12-17T01:13:08.885Z,994.80
2018-12-17T01:14:08.880Z,994.74
2018-12-17T01:15:08.862Z,994.77
2018-12-17T01:16:08.883Z,994.73
2018-12-17T01:17:08.849Z,994.72
2018-12-17T01:18:08.863Z,994.73
2018-12-17T01:19:08.812Z,994.68
2018-12-17T01:20:08.802Z,994.64
2018-12-17T01:21:08.802Z,994.65
2018-12-17T01:22:08.826Z,994.66
2018-12-17T01:23:08.794Z,994.65
2018-12-17T01:24:08.763Z,994.62
2018-12-17T01:25:08.754Z,994.63
2018-12-17T01:26:08.744Z,994.58
2018-12-17T01:27:08.746Z,994.59
2018-12-17T01:28:08.749Z,994.62
2018-12-17T01:29:08.713Z,994.61
2018-12-17T01:30:08.696Z,994.66
2018-12-17T01:31:08.683Z,994.64
2018-12-17T01:32:08.675Z,994.61
2018-12-17T01:33:08.664Z,994.68
2018-12-17T01:34:08.690Z,994.69
2018-12-17T01:35:08.654Z,994.68
2018-12-17T01:36:08.628Z,994.67
2018-12-17T01:37:08.633Z,994.72
2018-12-17T01:38:08.606Z,994.73
2018-12-17T01:39:08.594Z,994.73
2018-12-17T01:40:08.643Z,994.72
2018-12-17T01:41:08.612Z,994.74
2018-12-17T01:42:08.580Z,994.66
2018-12-17T01:43:08.557Z,994.72
2018-12-17T01:44:08.548Z,994.69
2018-12-17T01:45:08.530Z,994.72
2018-12-17T01:46:08.571Z,994.67
2018-12-17T01:47:08.536Z,994.69
2018-12-17T01:48:08.500Z,994.72
2018-12-17T01:49:08.500Z,994.71
2018-12-17T01:50:08.479Z,994.72
2018-12-17T01:51:08.467Z,994.75
2018-12-17T01:52:08.537Z,994.80
2018-12-17T01:53:08.462Z,994.78
2018-12-17T01:54:08.434Z,994.82
2018-12-17T01:55:08.443Z,994.86
2018-12-17T01:56:08.414Z,994.89
2018-12-17T01:57:08.405Z,994.86
2018-12-17T01:58:08.431Z,994.84
2018-12-17T01:59:08.396Z,994.94
2018-12-17T02:00:08.369Z,994.87
2018-12-17T02:01:08.358Z,994.92
2018-12-17T02:02:08.356Z,994.94
2018-12-17T02:03:08.339Z,994.93
2018-12-17T02:04:08.360Z,994.98
2018-12-17T02:05:08.348Z,995.01
2018-12-17T02:06:08.309Z,995.00
2018-12-17T02:07:08.297Z,995.02
2018-12-17T02:08:08.284Z,995.05
2018-12-17T02:09:08.278Z,995.00
2018-12-17T02:10:08.299Z,995.03
2018-12-17T02:11:08.250Z,995.03
2018-12-17T02:12:08.262Z,995.02
2018-12-17T02:13:08.226Z,995.00
2018-12-17T02:14:08.221Z,994.99
2018-12-17T02:15:08.205Z,995.03
2018-12-17T02:16:08.225Z,995.00
2018-12-17T02:17:08.183Z,995.03
2018-12-17T02:18:08.179Z,995.00
2018-12-17T02:19:08.164Z,994.99
2018-12-17T02:20:08.152Z,995.06
2018-12-17T02:21:08.147Z,995.04
2018-12-17T02:22:08.168Z,995.05
2018-12-17T02:23:08.120Z,995.03
2018-12-17T02:24:08.125Z,994.97
2018-12-17T02:25:08.111Z,995.06
2018-12-17T02:26:08.092Z,995.11
2018-12-17T02:27:08.075Z,995.10
2018-12-17T02:28:08.141Z,995.10
2018-12-17T02:29:08.054Z,995.07
2018-12-17T02:30:08.063Z,995.11
2018-12-17T02:31:08.037Z,995.10
2018-12-17T02:32:08.023Z,995.13
2018-12-17T02:33:08.018Z,995.05
2018-12-17T02:34:08.032Z,995.08
2018-12-17T02:35:08.001Z,995.05
2018-12-17T02:36:08.015Z,995.12
2018-12-17T02:37:07.975Z,995.07
2018-12-17T02:38:07.968Z,995.08
2018-12-17T02:39:07.952Z,995.10
2018-12-17T02:40:07.986Z,995.10
2018-12-17T02:41:07.927Z,995.13
2018-12-17T02:42:07.946Z,995.12
2018-12-17T02:43:07.920Z,995.12
2018-12-17T02:44:07.898Z,995.18
2018-12-17T02:45:07.886Z,995.21
2018-12-17T02:46:07.937Z,995.29
2018-12-17T02:47:07.869Z,995.30
2018-12-17T02:48:07.862Z,995.23
2018-12-17T02:49:07.842Z,995.27
2018-12-17T02:50:07.831Z,995.28
2018-12-17T02:51:07.817Z,995.24
2018-12-17T02:52:07.836Z,995.27
2018-12-17T02:53:07.798Z,995.31
2018-12-17T02:54:07.808Z,995.27
2018-12-17T02:55:07.774Z,995.27
2018-12-17T02:56:07.763Z,995.27
2018-12-17T02:57:07.757Z,995.27
2018-12-17T02:58:07.776Z,995.28
2018-12-17T02:59:07.740Z,995.26
2018-12-17T03:00:07.774Z,995.29
2018-12-17T03:01:07.711Z,995.25
2018-12-17T03:02:07.708Z,995.26
2018-12-17T03:03:07.686Z,995.24
2018-12-17T03:04:07.718Z,995.20
2018-12-17T03:05:07.669Z,995.19
2018-12-17T03:06:07.673Z,995.22
2018-12-17T03:07:07.640Z,995.21
2018-12-17T03:08:07.635Z,995.21
2018-12-17T03:09:07.637Z,995.25
2018-12-17T03:10:07.644Z,995.20
2018-12-17T03:11:07.604Z,995.23
2018-12-17T03:12:07.607Z,995.22
2018-12-17T03:13:07.576Z,995.25
2018-12-17T03:14:07.570Z,995.27
2018-12-17T03:15:07.557Z,995.31
2018-12-17T03:16:07.589Z,995.29
2018-12-17T03:17:07.534Z,995.36
2018-12-17T03:18:07.540Z,995.37
2018-12-17T03:19:07.516Z,995.38
2018-12-17T03:20:07.505Z,995.39
2018-12-17T03:21:07.491Z,995.34
2018-12-17T03:22:07.511Z,995.32
2018-12-17T03:23:07.471Z,995.38
2018-12-17T03:24:07.475Z,995.37
2018-12-17T03:25:07.447Z,995.36
2018-12-17T03:26:07.435Z,995.35
2018-12-17T03:27:07.431Z,995.38
2018-12-17T03:28:07.464Z,995.33
2018-12-17T03:29:07.408Z,995.34
2018-12-17T03:30:07.456Z,995.34
2018-12-17T03:31:07.502Z,995.37
2018-12-17T03:32:07.375Z,995.35
2018-12-17T03:33:07.370Z,995.38
2018-12-17T03:34:07.396Z,995.37
2018-12-17T03:35:07.347Z,995.36
2018-12-17T03:36:07.341Z,995.39
2018-12-17T03:37:07.329Z,995.40
2018-12-17T03:38:07.307Z,995.36
2018-12-17T03:39:07.297Z,995.37
2018-12-17T03:40:07.315Z,995.43
2018-12-17T03:41:07.276Z,995.40
2018-12-17T03:42:07.278Z,995.39
2018-12-17T03:43:07.258Z,995.41
2018-12-17T03:44:07.244Z,995.43
2018-12-17T03:45:07.231Z,995.42
2018-12-17T03:46:07.274Z,995.44
2018-12-17T03:47:07.212Z,995.44
2018-12-17T03:48:07.208Z,995.46
2018-12-17T03:49:07.188Z,995.41
2018-12-17T03:50:07.178Z,995.44
2018-12-17T03:51:07.167Z,995.46
2018-12-17T03:52:07.184Z,995.47
2018-12-17T03:53:07.144Z,995.47
2018-12-17T03:54:07.221Z,995.50
2018-12-17T03:55:07.123Z,995.49
2018-12-17T03:56:07.114Z,995.51
2018-12-17T03:57:07.105Z,995.49
2018-12-17T03:58:07.126Z,995.52
2018-12-17T03:59:07.090Z,995.46
2018-12-17T04:00:07.072Z,995.53
2018-12-17T04:01:07.062Z,995.53
2018-12-17T04:02:07.049Z,995.53
2018-12-17T04:03:07.037Z,995.52
2018-12-17T04:04:07.058Z,995.51
2018-12-17T04:05:07.028Z,995.53
2018-12-17T04:06:07.002Z,995.49
2018-12-17T04:07:06.999Z,995.49
2018-12-17T04:08:06.986Z,995.55
2018-12-17T04:09:06.971Z,995.56
2018-12-17T04:10:06.990Z,995.57
2018-12-17T04:11:06.961Z,995.53
2018-12-17T04:12:06.947Z,995.54
2018-12-17T04:13:06.927Z,995.59
2018-12-17T04:14:06.924Z,995.57
2018-12-17T04:15:06.913Z,995.56
2018-12-17T04:16:06.943Z,995.53
2018-12-17T04:17:06.907Z,995.52
2018-12-17T04:18:06.876Z,995.59
2018-12-17T04:19:06.867Z,995.51
2018-12-17T04:20:06.852Z,995.50
2018-12-17T04:21:06.851Z,995.55
2018-12-17T04:22:06.872Z,995.46
2018-12-17T04:23:06.833Z,995.49
2018-12-17T04:24:06.810Z,995.47
2018-12-17T04:25:06.804Z,995.46
2018-12-17T04:26:06.798Z,995.45
2018-12-17T04:27:06.775Z,995.38
2018-12-17T04:28:06.808Z,995.47
2018-12-17T04:29:07.308Z,995.48
2018-12-17T04:30:06.747Z,995.49
2018-12-17T04:31:06.739Z,995.49
2018-12-17T04:32:06.723Z,995.51
2018-12-17T04:33:06.712Z,995.45
2018-12-17T04:34:06.729Z,995.49
2018-12-17T04:35:06.704Z,995.48
2018-12-17T04:36:06.681Z,995.50
2018-12-17T04:37:06.672Z,995.53
2018-12-17T04:38:06.659Z,995.49
2018-12-17T04:39:06.651Z,995.50
2018-12-17T04:40:06.672Z,995.53
2018-12-17T04:41:06.640Z,995.48
2018-12-17T04:42:06.619Z,995.48
2018-12-17T04:43:06.603Z,995.50
2018-12-17T04:44:06.591Z,995.46
2018-12-17T04:45:06.594Z,995.50
2018-12-17T04:46:07.228Z,995.48
2018-12-17T04:47:06.585Z,995.49
2018-12-17T04:48:06.555Z,995.51
2018-12-17T04:49:06.542Z,995.46
2018-12-17T04:50:06.527Z,995.51
2018-12-17T04:51:06.518Z,995.51
2018-12-17T04:52:06.549Z,995.51
2018-12-17T04:53:06.518Z,995.50
2018-12-17T04:54:06.489Z,995.56
2018-12-17T04:55:06.523Z,995.60
2018-12-17T04:56:06.462Z,995.60
2018-12-17T04:57:06.484Z,995.65
2018-12-17T04:58:06.493Z,995.66
2018-12-17T04:59:06.429Z,995.72
2018-12-17T05:00:06.425Z,995.73
2018-12-17T05:01:06.429Z,995.74
2018-12-17T05:02:06.400Z,995.76
2018-12-17T05:03:06.387Z,995.86
2018-12-17T05:04:06.425Z,995.79
2018-12-17T05:05:06.366Z,995.83
2018-12-17T05:06:06.662Z,995.90
2018-12-17T05:07:06.345Z,995.88
2018-12-17T05:08:06.340Z,995.89
2018-12-17T05:09:06.398Z,995.99
2018-12-17T05:10:06.363Z,996.01
2018-12-17T05:11:06.303Z,995.98
2018-12-17T05:12:06.299Z,995.98
2018-12-17T05:13:06.296Z,995.98
2018-12-17T05:14:06.272Z,996.01
2018-12-17T05:15:06.258Z,996.09
2018-12-17T05:16:06.274Z,996.03
2018-12-17T05:17:06.236Z,996.06
2018-12-17T05:18:06.225Z,996.08
2018-12-17T05:19:06.223Z,995.98
2018-12-17T05:20:06.204Z,996.07
2018-12-17T05:21:06.192Z,996.03
2018-12-17T05:22:06.222Z,996.02
2018-12-17T05:23:06.168Z,996.01
2018-12-17T05:24:06.173Z,995.98
2018-12-17T05:25:06.156Z,996.02
2018-12-17T05:26:06.136Z,995.99
2018-12-17T05:27:06.129Z,995.98
2018-12-17T05:28:06.153Z,996.00
2018-12-17T05:29:06.104Z,996.00
2018-12-17T05:30:06.091Z,995.99
2018-12-17T05:31:06.085Z,995.98
2018-12-17T05:32:06.073Z,995.97
2018-12-17T05:33:06.075Z,996.00
2018-12-17T05:34:06.149Z,995.99
2018-12-17T05:35:06.054Z,996.00
2018-12-17T05:36:06.043Z,995.92
2018-12-17T05:37:06.028Z,995.92
2018-12-17T05:38:06.056Z,995.94
2018-12-17T05:39:06.036Z,995.88
2018-12-17T05:40:06.077Z,995.89
2018-12-17T05:41:05.973Z,995.96
2018-12-17T05:42:05.968Z,995.94
2018-12-17T05:43:05.963Z,995.93
2018-12-17T05:44:05.954Z,995.89
2018-12-17T05:45:05.943Z,995.99
2018-12-17T05:46:05.952Z,995.98
2018-12-17T05:47:05.923Z,995.96
2018-12-17T05:48:05.911Z,995.97
2018-12-17T05:49:05.889Z,995.96
2018-12-17T05:50:05.919Z,995.99
2018-12-17T05:51:05.899Z,996.01
2018-12-17T05:52:05.886Z,995.98
2018-12-17T05:53:05.839Z,995.97
2018-12-17T05:54:05.826Z,996.04
2018-12-17T05:55:06.019Z,996.06
2018-12-17T05:56:05.890Z,996.10
2018-12-17T05:57:05.792Z,996.15
2018-12-17T05:58:05.823Z,996.16
2018-12-17T05:59:05.783Z,996.15
2018-12-17T06:00:05.766Z,996.15
2018-12-17T06:01:05.761Z,996.09
2018-12-17T06:02:05.742Z,996.10
2018-12-17T06:03:05.743Z,996.13
2018-12-17T06:04:05.791Z,996.13
2018-12-17T06:05:05.730Z,996.13
2018-12-17T06:06:05.702Z,996.17
2018-12-17T06:07:05.699Z,996.19
2018-12-17T06:08:05.704Z,996.15
2018-12-17T06:09:05.671Z,996.24
2018-12-17T06:10:05.739Z,996.17
2018-12-17T06:11:05.641Z,996.22
2018-12-17T06:12:05.635Z,996.23
2018-12-17T06:13:05.627Z,996.24
2018-12-17T06:14:05.608Z,996.18
2018-12-17T06:15:05.601Z,996.27
2018-12-17T06:16:05.620Z,996.28
2018-12-17T06:17:05.587Z,996.28
2018-12-17T06:18:05.563Z,996.29
2018-12-17T06:19:05.551Z,996.36
2018-12-17T06:20:05.548Z,996.34
2018-12-17T06:21:05.539Z,996.38
2018-12-17T06:22:05.555Z,996.38
2018-12-17T06:23:05.536Z,996.40
2018-12-17T06:24:05.502Z,996.37
2018-12-17T06:25:05.530Z,996.37
2018-12-17T06:26:05.492Z,996.41
2018-12-17T06:27:05.485Z,996.43
2018-12-17T06:28:05.521Z,996.40
2018-12-17T06:29:05.457Z,996.45
2018-12-17T06:30:05.450Z,996.51
2018-12-17T06:31:05.434Z,996.49
2018-12-17T06:32:05.418Z,996.54
2018-12-17T06:33:05.923Z,996.51
2018-12-17T06:34:05.452Z,996.56
2018-12-17T06:35:05.383Z,996.61
2018-12-17T06:36:05.369Z,996.62
2018-12-17T06:37:05.369Z,996.62
2018-12-17T06:38:05.347Z,996.62
2018-12-17T06:39:05.341Z,996.63
2018-12-17T06:40:10.183Z,996.62
2018-12-17T06:41:06.314Z,996.62
2018-12-17T06:42:05.300Z,996.72
2018-12-17T06:43:05.302Z,996.72
2018-12-17T06:44:05.292Z,996.74
2018-12-17T06:45:05.335Z,996.74
2018-12-17T06:46:05.308Z,996.75
2018-12-17T06:47:05.240Z,996.79
2018-12-17T06:48:05.239Z,996.78
2018-12-17T06:49:05.237Z,996.79
2018-12-17T06:50:05.253Z,996.79
2018-12-17T06:51:05.200Z,996.73
2018-12-17T06:52:05.233Z,996.76
2018-12-17T06:53:05.184Z,996.75
2018-12-17T06:54:05.184Z,996.81
2018-12-17T06:55:05.900Z,996.75
2018-12-17T06:56:05.144Z,996.82
2018-12-17T06:57:05.138Z,996.77
2018-12-17T06:58:05.230Z,996.78
2018-12-17T06:59:05.112Z,996.83
2018-12-17T07:00:05.099Z,996.86
2018-12-17T07:01:05.096Z,996.84
2018-12-17T07:02:05.084Z,996.87
2018-12-17T07:03:05.082Z,996.94
2018-12-17T07:04:05.095Z,996.90
2018-12-17T07:05:05.070Z,996.92
2018-12-17T07:06:05.043Z,996.92
2018-12-17T07:07:05.037Z,996.92
2018-12-17T07:08:05.018Z,996.98
2018-12-17T07:09:05.007Z,996.93
2018-12-17T07:10:05.031Z,996.93
2018-12-17T07:11:04.981Z,996.97
2018-12-17T07:12:04.981Z,996.96
2018-12-17T07:13:04.970Z,997.00
2018-12-17T07:14:04.946Z,996.96
2018-12-17T07:15:04.943Z,997.04
2018-12-17T07:16:04.963Z,997.03
2018-12-17T07:17:04.924Z,997.02
2018-12-17T07:18:04.897Z,997.05
2018-12-17T07:19:04.890Z,996.98
2018-12-17T07:20:04.894Z,997.07
2018-12-17T07:21:04.908Z,997.06
2018-12-17T07:22:04.905Z,997.05
2018-12-17T07:23:04.862Z,997.04
2018-12-17T07:24:04.860Z,997.06
2018-12-17T07:25:04.836Z,997.13
2018-12-17T07:26:04.812Z,997.13
2018-12-17T07:27:04.815Z,997.12
2018-12-17T07:28:04.829Z,997.13
2018-12-17T07:29:04.795Z,997.21
2018-12-17T07:30:05.056Z,997.23
2018-12-17T07:31:04.945Z,997.22
2018-12-17T07:32:05.562Z,997.29
2018-12-17T07:33:05.829Z,997.28
2018-12-17T07:34:04.767Z,997.30
2018-12-17T07:35:04.716Z,997.33
2018-12-17T07:36:04.702Z,997.29
2018-12-17T07:37:04.686Z,997.32
2018-12-17T07:38:04.674Z,997.38
2018-12-17T07:39:04.663Z,997.46
2018-12-17T07:40:04.703Z,997.45
2018-12-17T07:41:04.644Z,997.46
2018-12-17T07:42:04.651Z,997.46
2018-12-17T07:43:04.624Z,997.55
2018-12-17T07:44:04.611Z,997.53
2018-12-17T07:45:05.299Z,997.58
2018-12-17T07:46:04.643Z,997.53
2018-12-17T07:47:04.586Z,997.57
2018-12-17T07:48:04.575Z,997.56
2018-12-17T07:49:04.578Z,997.56
2018-12-17T07:50:04.575Z,997.58
2018-12-17T07:51:04.535Z,997.59
2018-12-17T07:52:04.561Z,997.60
2018-12-17T07:53:04.514Z,997.64
2018-12-17T07:54:04.506Z,997.60
2018-12-17T07:55:04.509Z,997.65
2018-12-17T07:56:04.485Z,997.65
2018-12-17T07:57:04.469Z,997.67
2018-12-17T07:58:04.491Z,997.64
2018-12-17T07:59:04.447Z,997.62
2018-12-17T08:00:04.432Z,997.71
2018-12-17T08:01:04.420Z,997.66
2018-12-17T08:02:04.422Z,997.69
2018-12-17T08:03:04.422Z,997.72
2018-12-17T08:04:04.428Z,997.74
2018-12-17T08:05:04.378Z,997.75
2018-12-17T08:06:04.363Z,997.78
2018-12-17T08:07:04.406Z,997.86
2018-12-17T08:08:04.349Z,997.88
2018-12-17T08:09:04.347Z,997.87
2018-12-17T08:10:04.381Z,997.88
2018-12-17T08:11:04.329Z,997.90
2018-12-17T08:12:04.315Z,997.97
2018-12-17T08:13:04.320Z,997.98
2018-12-17T08:14:04.278Z,997.99
2018-12-17T08:15:04.277Z,997.99
2018-12-17T08:16:04.313Z,998.05
2018-12-17T08:17:04.243Z,998.07
2018-12-17T08:18:04.243Z,998.09
2018-12-17T08:19:04.231Z,998.08
2018-12-17T08:20:04.207Z,998.07
2018-12-17T08:21:04.199Z,998.12
2018-12-17T08:22:04.226Z,998.10
2018-12-17T08:23:04.184Z,998.20
2018-12-17T08:24:04.198Z,998.16
2018-12-17T08:25:04.162Z,998.15
2018-12-17T08:26:04.163Z,998.19
2018-12-17T08:27:04.142Z,998.19
2018-12-17T08:28:04.151Z,998.18
2018-12-17T08:29:04.112Z,998.22
2018-12-17T08:30:04.310Z,998.21
2018-12-17T08:31:04.091Z,998.35
2018-12-17T08:32:04.125Z,998.31
2018-12-17T08:33:04.075Z,998.32
2018-12-17T08:34:04.131Z,998.33
2018-12-17T08:35:04.042Z,998.27
2018-12-17T08:36:04.073Z,998.26
2018-12-17T08:37:04.023Z,998.33
2018-12-17T08:38:04.050Z,998.35
2018-12-17T08:39:03.996Z,998.34
2018-12-17T08:40:04.045Z,998.30
2018-12-17T08:41:04.004Z,998.31
2018-12-17T08:42:03.967Z,998.33
2018-12-17T08:43:03.970Z,998.40
2018-12-17T08:44:03.943Z,998.35
2018-12-17T08:45:03.945Z,998.33
2018-12-17T08:46:03.985Z,998.34
2018-12-17T08:47:03.929Z,998.38
2018-12-17T08:48:03.897Z,998.43
2018-12-17T08:49:03.971Z,998.36
2018-12-17T08:50:03.880Z,998.37
2018-12-17T08:51:03.882Z,998.41
2018-12-17T08:52:03.917Z,998.44
2018-12-17T08:53:03.849Z,998.48
2018-12-17T08:54:03.837Z,998.47
2018-12-17T08:55:03.818Z,998.53
2018-12-17T08:56:03.813Z,998.49
2018-12-17T08:57:03.813Z,998.48
2018-12-17T08:58:03.834Z,998.55
2018-12-17T08:59:04.882Z,998.56
2018-12-17T09:00:03.773Z,998.60
2018-12-17T09:01:03.799Z,998.64
2018-12-17T09:02:03.750Z,998.61
2018-12-17T09:03:03.739Z,998.63
2018-12-17T09:04:03.752Z,998.64
2018-12-17T09:05:03.750Z,998.65
2018-12-17T09:06:03.725Z,998.61
2018-12-17T09:07:03.696Z,998.60
2018-12-17T09:08:03.676Z,998.63
2018-12-17T09:09:03.689Z,998.62
2018-12-17T09:10:03.691Z,998.60
2018-12-17T09:11:03.655Z,998.64
2018-12-17T09:12:03.640Z,998.65
2018-12-17T09:13:03.622Z,998.69
2018-12-17T09:14:03.619Z,998.71
2018-12-17T09:15:03.629Z,998.72
2018-12-17T09:16:03.661Z,998.72
2018-12-17T09:17:03.584Z,998.73
2018-12-17T09:18:03.576Z,998.70
2018-12-17T09:19:03.559Z,998.74
2018-12-17T09:20:03.552Z,998.71
2018-12-17T09:21:03.542Z,998.79
2018-12-17T09:22:03.562Z,998.80
2018-12-17T09:23:03.523Z,998.84
2018-12-17T09:24:03.512Z,998.87
2018-12-17T09:25:03.495Z,998.85
2018-12-17T09:26:03.525Z,998.83
2018-12-17T09:27:03.475Z,998.85
2018-12-17T09:28:03.516Z,998.87
2018-12-17T09:29:03.451Z,998.90
2018-12-17T09:30:03.522Z,998.92
2018-12-17T09:31:03.426Z,998.90
2018-12-17T09:32:03.427Z,998.90
2018-12-17T09:33:03.439Z,998.96
2018-12-17T09:34:03.455Z,998.95
2018-12-17T09:35:03.391Z,998.93
2018-12-17T09:36:03.370Z,998.97
2018-12-17T09:37:03.382Z,998.98
2018-12-17T09:38:03.371Z,998.98
2018-12-17T09:39:03.350Z,998.95
2018-12-17T09:40:03.358Z,999.02
2018-12-17T09:41:03.314Z,999.05
2018-12-17T09:42:03.328Z,999.05
2018-12-17T09:43:03.315Z,999.05
2018-12-17T09:44:03.887Z,999.10
2018-12-17T09:45:03.277Z,999.08
2018-12-17T09:46:03.334Z,999.11
2018-12-17T09:47:03.312Z,999.08
2018-12-17T09:48:03.248Z,999.13
2018-12-17T09:49:03.241Z,999.05
2018-12-17T09:50:03.221Z,999.10
2018-12-17T09:51:03.219Z,999.14
2018-12-17T09:52:03.232Z,999.14
2018-12-17T09:53:03.216Z,999.18
2018-12-17T09:54:03.183Z,999.17
2018-12-17T09:55:03.160Z,999.21
2018-12-17T09:56:03.150Z,999.17
2018-12-17T09:57:03.147Z,999.17
2018-12-17T09:58:03.176Z,999.18
2018-12-17T09:59:03.141Z,999.20
2018-12-17T10:00:03.110Z,999.22
2018-12-17T10:01:03.096Z,999.22
2018-12-17T10:02:03.086Z,999.28
2018-12-17T10:03:03.086Z,999.26
2018-12-17T10:04:03.107Z,999.29
2018-12-17T10:05:03.066Z,999.30
2018-12-17T10:06:03.042Z,999.32
2018-12-17T10:07:03.044Z,999.31
2018-12-17T10:08:03.051Z,999.32
2018-12-17T10:09:03.026Z,999.23
2018-12-17T10:10:03.031Z,999.24
2018-12-17T10:11:02.991Z,999.26
2018-12-17T10:12:02.988Z,999.26
2018-12-17T10:13:02.965Z,999.26
2018-12-17T10:14:02.972Z,999.23
2018-12-17T10:15:02.983Z,999.24
2018-12-17T10:16:02.985Z,999.26
2018-12-17T10:17:03.023Z,999.26
2018-12-17T10:18:02.949Z,999.22
2018-12-17T10:19:02.908Z,999.25
2018-12-17T10:20:02.906Z,999.27
2018-12-17T10:21:02.886Z,999.27
2018-12-17T10:22:02.893Z,999.24
2018-12-17T10:23:02.869Z,999.28
2018-12-17T10:24:02.867Z,999.26
2018-12-17T10:25:02.862Z,999.29
2018-12-17T10:26:02.828Z,999.25
2018-12-17T10:27:02.827Z,999.25
2018-12-17T10:28:02.861Z,999.24
2018-12-17T10:29:02.810Z,999.23
2018-12-17T10:30:02.786Z,999.20
2018-12-17T10:31:02.780Z,999.19
2018-12-17T10:32:02.799Z,999.19
2018-12-17T10:33:02.757Z,999.22
2018-12-17T10:34:02.781Z,999.22
2018-12-17T10:35:02.726Z,999.29
2018-12-17T10:36:02.749Z,999.20
2018-12-17T10:37:02.725Z,999.26
2018-12-17T10:38:02.711Z,999.32
2018-12-17T10:39:02.699Z,999.27
2018-12-17T10:40:02.708Z,999.29
2018-12-17T10:41:02.663Z,999.32
2018-12-17T10:42:02.639Z,999.29
2018-12-17T10:43:02.638Z,999.27
2018-12-17T10:44:02.624Z,999.32
2018-12-17T10:45:02.612Z,999.30
2018-12-17T10:46:02.640Z,999.31
2018-12-17T10:47:02.584Z,999.29
2018-12-17T10:48:02.576Z,999.31
2018-12-17T10:49:02.565Z,999.26
2018-12-17T10:50:02.558Z,999.25
2018-12-17T10:51:02.548Z,999.26
2018-12-17T10:52:02.563Z,999.29
2018-12-17T10:53:02.520Z,999.34
2018-12-17T10:54:02.508Z,999.29
2018-12-17T10:55:02.503Z,999.36
2018-12-17T10:56:02.532Z,999.33
2018-12-17T10:57:02.474Z,999.31
2018-12-17T10:58:02.504Z,999.33
2018-12-17T10:59:02.447Z,999.25
2018-12-17T11:00:02.440Z,999.31
2018-12-17T11:01:02.425Z,999.25
2018-12-17T11:02:02.427Z,999.37
2018-12-17T11:03:02.406Z,999.37
2018-12-17T11:04:02.427Z,999.35
2018-12-17T11:05:02.379Z,999.42
2018-12-17T11:06:02.374Z,999.37
2018-12-17T11:07:02.365Z,999.44
2018-12-17T11:08:02.360Z,999.28
2018-12-17T11:09:02.410Z,999.26
2018-12-17T11:10:02.381Z,999.24
2018-12-17T11:11:02.324Z,999.28
2018-12-17T11:12:02.309Z,999.30
2018-12-17T11:13:02.300Z,999.31
2018-12-17T11:14:02.299Z,999.33
2018-12-17T11:15:02.281Z,999.31
2018-12-17T11:16:02.292Z,999.34
2018-12-17T11:17:02.267Z,999.34
2018-12-17T11:18:02.254Z,999.39
2018-12-17T11:19:02.230Z,999.31
2018-12-17T11:20:02.220Z,999.35
2018-12-17T11:21:02.229Z,999.33
2018-12-17T11:22:02.251Z,999.38
2018-12-17T11:23:02.194Z,999.36
2018-12-17T11:24:02.276Z,999.37
2018-12-17T11:25:02.160Z,999.35
2018-12-17T11:26:02.152Z,999.40
2018-12-17T11:27:02.141Z,999.41
2018-12-17T11:28:02.167Z,999.41
2018-12-17T11:29:02.113Z,999.42
2018-12-17T11:30:02.116Z,999.46
2018-12-17T11:31:02.093Z,999.44
2018-12-17T11:32:02.085Z,999.35
2018-12-17T11:33:02.084Z,999.48
2018-12-17T11:34:02.087Z,999.46
2018-12-17T11:35:02.053Z,999.44
2018-12-17T11:36:02.035Z,999.41
2018-12-17T11:37:02.043Z,999.39
2018-12-17T11:38:02.013Z,999.43
2018-12-17T11:39:02.038Z,999.32
2018-12-17T11:40:02.019Z,999.40
2018-12-17T11:41:01.980Z,999.40
2018-12-17T11:42:01.967Z,999.48
2018-12-17T11:43:01.972Z,999.45
2018-12-17T11:44:01.944Z,999.49
2018-12-17T11:45:01.937Z,999.45
2018-12-17T11:46:01.954Z,999.40
2018-12-17T11:47:01.911Z,999.38
2018-12-17T11:48:01.906Z,999.41
2018-12-17T11:49:01.900Z,999.42
2018-12-17T11:50:01.892Z,999.39
2018-12-17T11:51:01.871Z,999.45
2018-12-17T11:52:01.895Z,999.50
2018-12-17T11:53:01.849Z,999.44
2018-12-17T11:54:01.833Z,999.50
2018-12-17T11:55:01.840Z,999.54
2018-12-17T11:56:01.822Z,999.54
2018-12-17T11:57:01.801Z,999.52
2018-12-17T11:58:01.832Z,999.61
2018-12-17T11:59:01.780Z,999.67
2018-12-17T12:00:01.778Z,999.64
2018-12-17T12:01:01.773Z,999.65
2018-12-17T12:02:01.744Z,999.70
2018-12-17T12:03:01.734Z,999.68
2018-12-17T12:04:01.752Z,999.73
2018-12-17T12:05:01.712Z,999.70
2018-12-17T12:06:01.702Z,999.71
2018-12-17T12:07:01.701Z,999.73
2018-12-17T12:08:01.680Z,999.64
2018-12-17T12:09:01.666Z,999.67
2018-12-17T12:10:01.684Z,999.62
2018-12-17T12:11:01.645Z,999.63
2018-12-17T12:12:01.633Z,999.59
2018-12-17T12:13:01.632Z,999.55
2018-12-17T12:14:01.614Z,999.59
2018-12-17T12:15:01.604Z,999.56
2018-12-17T12:16:01.619Z,999.58
2018-12-17T12:17:01.577Z,999.56
2018-12-17T12:18:01.569Z,999.60
2018-12-17T12:19:01.561Z,999.59
2018-12-17T12:20:01.558Z,999.59
2018-12-17T12:21:01.531Z,999.60
2018-12-17T12:22:01.551Z,999.62
2018-12-17T12:23:01.509Z,999.62
2018-12-17T12:24:01.509Z,999.66
2018-12-17T12:25:01.497Z,999.66
2018-12-17T12:26:01.480Z,999.71
2018-12-17T12:27:01.475Z,999.69
2018-12-17T12:28:01.492Z,999.76